createdAt,value
2022-08-17T00:02:26.424Z,69.09
2022-08-17T00:04:55.600Z,69.08
2022-08-17T00:07:23.289Z,69.74
2022-08-17T00:09:50.515Z,70.05
2022-08-17T00:12:42.845Z,69.54
2022-08-17T00:15:10.692Z,69.26
2022-08-17T00:17:38.167Z,69.42
2022-08-17T00:20:06.421Z,69.15
2022-08-17T00:22:36.483Z,69.48
2022-08-17T00:25:09.057Z,70.06
2022-08-17T00:27:36.947Z,70.19
2022-08-17T00:30:06.689Z,70.58
2022-08-17T00:33:14.542Z,70.30
2022-08-17T00:35:30.636Z,70.82
2022-08-17T00:37:57.909Z,71.34
2022-08-17T00:40:25.246Z,71.71
2022-08-17T00:42:53.518Z,71.47
2022-08-17T00:45:23.092Z,71.42
2022-08-17T00:47:50.346Z,71.20
2022-08-17T00:50:19.194Z,70.90
2022-08-17T00:52:56.051Z,71.59
2022-08-17T00:55:25.428Z,71.36
2022-08-17T00:57:58.599Z,71.22
2022-08-17T01:00:28.679Z,71.95
2022-08-17T01:03:10.018Z,72.10
2022-08-17T01:05:42.192Z,72.37
2022-08-17T01:08:13.459Z,72.81
2022-08-17T01:10:58.765Z,73.20
2022-08-17T01:13:42.577Z,73.49
2022-08-17T01:16:28.334Z,73.82
2022-08-17T01:19:01.030Z,74.32
2022-08-17T01:21:43.941Z,74.25
2022-08-17T01:24:11.175Z,73.87
2022-08-17T01:26:43.328Z,73.75
2022-08-17T01:29:12.660Z,72.91
2022-08-17T01:31:45.515Z,73.03
2022-08-17T01:34:15.859Z,73.34
2022-08-17T01:36:45.899Z,73.79
2022-08-17T01:39:30.515Z,73.37
2022-08-17T01:42:11.055Z,73.54
2022-08-17T01:44:41.272Z,73.57
2022-08-17T01:47:08.485Z,73.55
2022-08-17T01:49:35.765Z,73.48
2022-08-17T01:52:10.942Z,73.94
2022-08-17T01:54:41.441Z,74.70
2022-08-17T01:57:09.259Z,74.68
2022-08-17T01:59:37.060Z,74.70
2022-08-17T02:02:07.282Z,74.77
2022-08-17T02:04:35.175Z,74.80
2022-08-17T02:07:02.404Z,74.19
2022-08-17T02:09:31.491Z,74.45
2022-08-17T02:12:38.300Z,74.76
2022-08-17T02:14:48.031Z,74.74
2022-08-17T02:17:15.256Z,74.47
2022-08-17T02:19:42.667Z,74.27
2022-08-17T02:22:10.384Z,74.30
2022-08-17T02:24:59.635Z,73.99
2022-08-17T02:27:26.411Z,73.98
2022-08-17T02:29:53.763Z,73.73
2022-08-17T02:32:28.040Z,73.24
2022-08-17T02:34:57.466Z,72.40
2022-08-17T02:37:26.601Z,72.31
2022-08-17T02:39:54.618Z,71.91
2022-08-17T02:42:31.502Z,71.34
2022-08-17T02:45:00.646Z,71.23
2022-08-17T02:47:28.048Z,70.38
2022-08-17T02:49:56.141Z,68.89
2022-08-17T02:52:53.520Z,67.63
2022-08-17T02:55:17.383Z,66.64
2022-08-17T02:57:45.622Z,66.91
2022-08-17T03:00:18.876Z,67.38
2022-08-17T03:02:46.045Z,65.16
2022-08-17T03:05:15.763Z,65.44
2022-08-17T03:07:43.132Z,66.18
2022-08-17T03:10:11.693Z,67.23
2022-08-17T03:12:41.688Z,67.20
2022-08-17T03:15:12.873Z,67.17
2022-08-17T03:17:40.170Z,66.32
2022-08-17T03:20:08.554Z,66.15
2022-08-17T03:22:38.618Z,65.87
2022-08-17T03:25:10.743Z,65.16
2022-08-17T03:27:39.382Z,65.58
2022-08-17T03:30:10.709Z,66.07
2022-08-17T03:32:39.964Z,66.43
2022-08-17T03:35:08.781Z,66.81
2022-08-17T03:37:36.785Z,66.47
2022-08-17T03:40:07.575Z,65.97
2022-08-17T03:42:38.089Z,65.60
2022-08-17T03:45:38.491Z,65.99
2022-08-17T03:48:35.627Z,66.76
2022-08-17T03:51:21.642Z,67.42
2022-08-17T03:54:13.346Z,68.19
2022-08-17T03:56:45.104Z,68.61
2022-08-17T03:59:20.846Z,68.51
2022-08-17T04:01:53.364Z,68.68
2022-08-17T04:04:27.713Z,69.08
2022-08-17T04:06:55.715Z,69.20
2022-08-17T04:09:22.988Z,69.49
2022-08-17T04:11:50.221Z,68.84
2022-08-17T04:14:17.448Z,69.29
2022-08-17T04:16:44.708Z,69.06
2022-08-17T04:19:12.289Z,69.13
2022-08-17T04:21:39.960Z,69.09
2022-08-17T04:24:07.803Z,69.14
2022-08-17T04:26:52.226Z,68.15
2022-08-17T04:29:22.692Z,67.47
2022-08-17T04:31:50.273Z,67.93
2022-08-17T04:34:19.574Z,67.90
2022-08-17T04:36:50.098Z,68.24
2022-08-17T04:39:17.856Z,68.14
2022-08-17T04:42:03.385Z,68.04
2022-08-17T04:44:37.795Z,67.87
2022-08-17T04:47:07.155Z,67.95
2022-08-17T04:49:38.049Z,67.70
2022-08-17T04:52:05.336Z,67.61
2022-08-17T04:54:32.639Z,67.19
2022-08-17T04:56:59.901Z,66.22
2022-08-17T04:59:27.132Z,66.84
2022-08-17T05:01:54.728Z,66.64
2022-08-17T05:04:34.443Z,66.69
2022-08-17T05:07:04.574Z,66.68
2022-08-17T05:09:32.113Z,65.95
2022-08-17T05:12:02.651Z,65.63
2022-08-17T05:14:32.328Z,65.84
2022-08-17T05:17:02.037Z,66.27
2022-08-17T05:19:35.341Z,65.43
2022-08-17T05:22:06.179Z,64.92
2022-08-17T05:24:42.618Z,65.29
2022-08-17T05:27:19.162Z,68.81
2022-08-17T05:29:46.597Z,64.38
2022-08-17T05:32:39.221Z,62.58
2022-08-17T05:35:01.332Z,61.45
2022-08-17T05:37:28.755Z,60.41
2022-08-17T05:39:56.082Z,58.89
2022-08-17T05:42:24.107Z,57.83
2022-08-17T05:44:51.405Z,56.16
2022-08-17T05:47:18.651Z,53.77
2022-08-17T05:49:49.091Z,54.27
2022-08-17T05:52:30.172Z,55.55
2022-08-17T05:55:25.268Z,56.76
2022-08-17T05:57:59.869Z,56.57
2022-08-17T06:00:52.063Z,56.68
2022-08-17T06:03:28.279Z,57.82
2022-08-17T06:06:10.841Z,58.22
2022-08-17T06:08:40.718Z,59.60
2022-08-17T06:11:22.765Z,60.11
2022-08-17T06:14:18.317Z,59.92
2022-08-17T06:16:50.801Z,60.97
2022-08-17T06:19:23.827Z,60.99
2022-08-17T06:21:54.215Z,61.47
2022-08-17T06:24:24.296Z,62.44
2022-08-17T06:26:52.739Z,62.70
2022-08-17T06:29:44.017Z,64.37
2022-08-17T06:32:12.851Z,65.58
2022-08-17T06:34:42.184Z,65.96
2022-08-17T06:37:31.195Z,66.73
2022-08-17T06:40:10.910Z,66.22
2022-08-17T06:43:00.849Z,67.15
2022-08-17T06:45:41.904Z,67.48
2022-08-17T06:48:48.420Z,68.48
2022-08-17T06:51:27.802Z,68.64
2022-08-17T06:54:06.473Z,68.58
2022-08-17T06:56:54.277Z,69.07
2022-08-17T06:59:53.210Z,68.99
2022-08-17T07:02:52.249Z,69.22
2022-08-17T07:05:21.801Z,68.65
2022-08-17T07:08:04.602Z,69.17
2022-08-17T07:10:42.945Z,69.43
2022-08-17T07:13:43.279Z,68.87
2022-08-17T07:16:41.124Z,68.43
2022-08-17T07:19:10.956Z,68.05
2022-08-17T07:21:51.811Z,68.02
2022-08-17T07:24:33.544Z,68.11
2022-08-17T07:27:11.794Z,68.00
2022-08-17T07:29:48.024Z,67.92
2022-08-17T07:32:20.268Z,66.98
2022-08-17T07:35:00.819Z,66.86
2022-08-17T07:37:28.155Z,66.64
2022-08-17T07:40:14.920Z,66.44
2022-08-17T07:42:46.553Z,66.20
2022-08-17T07:45:35.047Z,66.15
2022-08-17T07:48:20.366Z,65.61
2022-08-17T07:50:49.703Z,65.67
2022-08-17T07:53:25.994Z,65.58
2022-08-17T07:55:53.907Z,65.44
2022-08-17T07:58:23.981Z,65.39
2022-08-17T08:01:08.284Z,65.10
2022-08-17T08:03:42.887Z,64.98
2022-08-17T08:06:23.189Z,65.16
2022-08-17T08:08:54.796Z,64.59
2022-08-17T08:11:32.980Z,64.58
2022-08-17T08:14:29.325Z,64.26
2022-08-17T08:16:59.108Z,63.85
2022-08-17T08:19:28.358Z,63.45
2022-08-17T08:22:04.537Z,63.40
2022-08-17T08:24:52.229Z,63.11
2022-08-17T08:27:27.688Z,62.78
2022-08-17T08:30:18.269Z,62.22
2022-08-17T08:33:21.212Z,62.30
2022-08-17T08:35:53.636Z,62.60
2022-08-17T08:38:53.731Z,61.46
2022-08-17T08:41:24.086Z,61.48
2022-08-17T08:44:03.709Z,61.53
2022-08-17T08:46:39.520Z,60.79
2022-08-17T08:50:01.230Z,60.54
2022-08-17T08:52:31.062Z,59.66
2022-08-17T08:55:10.246Z,58.97
2022-08-17T08:57:45.178Z,59.51
2022-08-17T09:00:21.601Z,59.16
2022-08-17T09:03:06.168Z,58.87
2022-08-17T09:05:45.468Z,58.89
2022-08-17T09:08:40.256Z,58.79
2022-08-17T09:11:28.396Z,57.75
2022-08-17T09:14:21.534Z,57.90
2022-08-17T09:17:00.484Z,58.50
2022-08-17T09:19:53.796Z,57.31
2022-08-17T09:22:33.027Z,56.39
2022-08-17T09:25:13.614Z,56.51
2022-08-17T09:27:57.265Z,57.19
2022-08-17T09:30:43.360Z,57.06
2022-08-17T09:33:15.250Z,55.56
2022-08-17T09:35:48.100Z,55.31
2022-08-17T09:38:41.667Z,54.57
2022-08-17T09:41:49.403Z,54.74
2022-08-17T09:44:30.991Z,55.45
2022-08-17T09:47:14.469Z,55.19
2022-08-17T09:49:49.248Z,54.99
2022-08-17T09:52:21.790Z,53.33
2022-08-17T09:54:53.518Z,53.17
2022-08-17T09:57:32.156Z,53.23
2022-08-17T10:00:16.044Z,53.18
2022-08-17T10:02:53.465Z,52.66
2022-08-17T10:05:39.981Z,51.83
2022-08-17T10:08:22.917Z,51.13
2022-08-17T10:10:56.516Z,51.76
2022-08-17T10:13:53.429Z,50.32
2022-08-17T10:16:44.899Z,50.65
2022-08-17T10:19:15.169Z,50.49
2022-08-17T10:22:14.751Z,50.23
2022-08-17T10:25:22.236Z,49.99
2022-08-17T10:27:56.611Z,49.98
2022-08-17T10:30:28.932Z,50.76
2022-08-17T10:33:06.789Z,49.82
2022-08-17T10:36:10.890Z,49.35
2022-08-17T10:38:59.468Z,49.04
2022-08-17T10:41:30.966Z,49.04
2022-08-17T10:44:38.548Z,47.99
2022-08-17T10:47:11.669Z,46.49
2022-08-17T10:49:47.939Z,46.34
2022-08-17T10:52:41.453Z,46.33
2022-08-17T10:55:17.812Z,45.74
2022-08-17T10:57:50.223Z,46.25
2022-08-17T11:00:28.460Z,44.08
2022-08-17T11:02:57.548Z,44.31
2022-08-17T11:05:50.347Z,44.04
2022-08-17T11:08:33.749Z,45.33
2022-08-17T11:11:35.859Z,44.65
2022-08-17T11:14:18.849Z,44.65
2022-08-17T11:17:23.460Z,44.48
2022-08-17T11:20:21.056Z,44.87
2022-08-17T11:23:03.448Z,44.04
2022-08-17T11:25:40.813Z,43.06
2022-08-17T11:28:22.053Z,42.71
2022-08-17T11:30:53.888Z,42.55
2022-08-17T11:33:30.401Z,42.38
2022-08-17T11:36:20.035Z,40.95
2022-08-17T11:39:19.236Z,39.64
2022-08-17T11:42:05.887Z,38.41
2022-08-17T11:44:53.327Z,36.84
2022-08-17T11:48:23.786Z,36.84
2022-08-17T11:51:18.563Z,38.92
2022-08-17T11:53:45.832Z,38.75
2022-08-17T11:56:31.796Z,37.31
2022-08-17T11:59:00.768Z,36.98
2022-08-17T12:01:29.068Z,37.01
2022-08-17T12:04:25.929Z,37.19
2022-08-17T12:06:56.947Z,36.11
2022-08-17T12:09:29.852Z,36.11
2022-08-17T12:12:14.218Z,36.26
2022-08-17T12:15:09.546Z,35.08
2022-08-17T12:17:40.972Z,35.89
2022-08-17T12:20:38.700Z,36.83
2022-08-17T12:23:24.255Z,35.98
2022-08-17T12:26:05.099Z,37.03
2022-08-17T12:28:36.420Z,36.72
2022-08-17T12:31:07.712Z,36.96
2022-08-17T12:33:39.955Z,37.48
2022-08-17T12:36:08.939Z,38.85
2022-08-17T12:38:38.174Z,38.69
2022-08-17T12:41:26.334Z,38.45
2022-08-17T12:44:14.940Z,37.25
2022-08-17T12:46:54.467Z,38.02
2022-08-17T12:49:29.840Z,37.77
2022-08-17T12:52:05.768Z,37.51
2022-08-17T12:54:42.007Z,35.22
2022-08-17T12:57:14.556Z,35.45
2022-08-17T12:59:53.184Z,34.66
2022-08-17T13:02:31.231Z,33.48
2022-08-17T13:05:01.461Z,33.88
2022-08-17T13:07:36.742Z,33.03
2022-08-17T13:10:04.540Z,34.08
2022-08-17T13:12:35.461Z,35.06
2022-08-17T13:15:03.003Z,35.17
2022-08-17T13:17:34.761Z,34.33
2022-08-17T13:20:06.124Z,33.58
2022-08-17T13:22:33.637Z,34.23
2022-08-17T13:25:07.418Z,34.84
2022-08-17T13:27:34.821Z,33.84
2022-08-17T13:30:11.601Z,33.04
2022-08-17T13:32:46.347Z,33.62
2022-08-17T13:35:39.989Z,34.99
2022-08-17T13:38:14.529Z,34.55
2022-08-17T13:40:43.801Z,34.83
2022-08-17T13:43:11.953Z,34.41
2022-08-17T13:45:50.774Z,34.51
2022-08-17T13:48:29.510Z,34.89
2022-08-17T13:50:56.799Z,35.06
2022-08-17T13:53:26.769Z,35.23
2022-08-17T13:55:58.533Z,33.70
2022-08-17T13:58:32.088Z,34.66
2022-08-17T14:01:35.918Z,35.02
2022-08-17T14:04:10.104Z,34.49
2022-08-17T14:06:52.275Z,34.33
2022-08-17T14:09:24.318Z,34.21
2022-08-17T14:11:54.120Z,35.21
2022-08-17T14:14:23.288Z,35.19
2022-08-17T14:16:51.961Z,33.46
2022-08-17T14:19:24.284Z,34.39
2022-08-17T14:21:52.284Z,34.88
2022-08-17T14:24:26.479Z,34.52
2022-08-17T14:26:54.005Z,34.34
2022-08-17T14:29:23.808Z,34.54
2022-08-17T14:31:54.227Z,34.93
2022-08-17T14:34:24.343Z,34.12
2022-08-17T14:36:52.758Z,34.45
2022-08-17T14:39:20.608Z,34.77
2022-08-17T14:41:48.926Z,33.97
2022-08-17T14:44:16.298Z,34.11
2022-08-17T14:46:44.933Z,34.45
2022-08-17T14:49:13.432Z,33.83
2022-08-17T14:51:43.589Z,34.88
2022-08-17T14:54:33.422Z,36.72
2022-08-17T14:57:22.566Z,37.33
2022-08-17T14:59:54.942Z,38.97
2022-08-17T15:02:31.046Z,40.14
2022-08-17T15:05:03.206Z,40.42
2022-08-17T15:07:31.393Z,40.34
2022-08-17T15:10:01.616Z,40.61
2022-08-17T15:12:34.561Z,41.16
2022-08-17T15:15:06.294Z,41.22
2022-08-17T15:17:44.518Z,41.62
2022-08-17T15:20:22.979Z,41.91
2022-08-17T15:22:50.603Z,42.10
2022-08-17T15:25:19.352Z,41.95
2022-08-17T15:27:47.410Z,42.33
2022-08-17T15:30:15.814Z,42.68
2022-08-17T15:32:50.779Z,42.54
2022-08-17T15:35:26.982Z,43.42
2022-08-17T15:37:54.994Z,44.37
2022-08-17T15:40:22.263Z,44.07
2022-08-17T15:42:51.112Z,43.81
2022-08-17T15:45:23.037Z,43.81
2022-08-17T15:47:52.054Z,44.31
2022-08-17T15:50:19.714Z,45.37
2022-08-17T15:52:47.601Z,45.44
2022-08-17T15:55:15.638Z,44.86
2022-08-17T15:57:43.000Z,44.78
2022-08-17T16:00:11.105Z,45.27
2022-08-17T16:03:45.127Z,44.99
2022-08-17T16:05:31.076Z,45.29
2022-08-17T16:07:59.759Z,45.73
2022-08-17T16:10:35.476Z,45.52
2022-08-17T16:13:04.047Z,45.26
2022-08-17T16:15:32.027Z,45.59
2022-08-17T16:17:59.765Z,45.69
2022-08-17T16:20:27.616Z,46.08
2022-08-17T16:22:55.252Z,46.78
2022-08-17T16:25:38.401Z,46.54
2022-08-17T16:28:16.227Z,47.55
2022-08-17T16:30:43.962Z,47.50
2022-08-17T16:33:11.654Z,48.38
2022-08-17T16:35:39.166Z,48.98
2022-08-17T16:38:07.260Z,49.18
2022-08-17T16:40:36.267Z,49.54
2022-08-17T16:43:09.186Z,54.58
2022-08-17T16:45:40.549Z,56.98
2022-08-17T16:48:09.383Z,57.80
2022-08-17T16:50:37.517Z,58.24
2022-08-17T16:53:10.688Z,58.13
2022-08-17T16:55:38.612Z,58.58
2022-08-17T16:58:06.909Z,59.52
2022-08-17T17:00:35.260Z,59.10
2022-08-17T17:03:19.355Z,59.23
2022-08-17T17:06:24.479Z,58.36
2022-08-17T17:09:07.989Z,58.65
2022-08-17T17:11:48.188Z,58.05
2022-08-17T17:14:29.539Z,56.78
2022-08-17T17:16:57.727Z,56.58
2022-08-17T17:19:37.237Z,57.31
2022-08-17T17:22:14.116Z,59.34
2022-08-17T17:25:12.209Z,60.92
2022-08-17T17:27:58.864Z,60.18
2022-08-17T17:30:58.487Z,58.74
2022-08-17T17:33:37.039Z,57.42
2022-08-17T17:36:25.712Z,59.32
2022-08-17T17:38:59.291Z,60.41
2022-08-17T17:41:32.820Z,61.59
2022-08-17T17:44:12.169Z,60.21
2022-08-17T17:46:43.327Z,62.04
2022-08-17T17:49:14.081Z,63.82
2022-08-17T17:52:08.550Z,63.52
2022-08-17T17:55:09.671Z,63.59
2022-08-17T17:58:00.718Z,64.69
2022-08-17T18:01:01.622Z,64.73
2022-08-17T18:03:50.679Z,63.70
2022-08-17T18:06:33.179Z,63.02
2022-08-17T18:09:19.234Z,62.23
2022-08-17T18:12:02.561Z,62.26
2022-08-17T18:15:00.195Z,62.12
2022-08-17T18:17:29.873Z,62.22
2022-08-17T18:19:57.438Z,62.00
2022-08-17T18:22:25.966Z,63.03
2022-08-17T18:24:57.855Z,66.77
2022-08-17T18:27:34.552Z,69.19
2022-08-17T18:30:26.075Z,71.32
2022-08-17T18:32:53.487Z,70.99
2022-08-17T18:35:22.215Z,71.17
2022-08-17T18:37:52.606Z,70.89
2022-08-17T18:40:20.065Z,71.32
2022-08-17T18:43:03.034Z,71.16
2022-08-17T18:45:33.474Z,70.37
2022-08-17T18:48:01.725Z,69.71
2022-08-17T18:50:39.522Z,69.22
2022-08-17T18:53:26.736Z,69.45
2022-08-17T18:56:26.858Z,68.87
2022-08-17T18:59:01.270Z,69.21
2022-08-17T19:01:52.403Z,68.81
2022-08-17T19:04:35.588Z,68.82
2022-08-17T19:07:23.752Z,69.72
2022-08-17T19:10:14.135Z,70.07
2022-08-17T19:13:24.334Z,70.70
2022-08-17T19:16:15.322Z,70.57
2022-08-17T19:18:48.684Z,71.07
2022-08-17T19:21:25.533Z,71.25
2022-08-17T19:24:19.914Z,72.21
2022-08-17T19:26:59.459Z,72.47
2022-08-17T19:29:39.075Z,72.98
2022-08-17T19:32:08.956Z,73.21
2022-08-17T19:34:38.170Z,73.63
2022-08-17T19:37:25.430Z,73.80
2022-08-17T19:40:24.429Z,73.43
2022-08-17T19:43:12.225Z,73.85
2022-08-17T19:45:45.513Z,74.31
2022-08-17T19:48:35.618Z,74.66
2022-08-17T19:51:38.773Z,74.35
2022-08-17T19:54:20.985Z,74.11
2022-08-17T19:57:06.172Z,73.60
2022-08-17T19:59:49.391Z,71.38
2022-08-17T20:02:22.479Z,71.05
2022-08-17T20:04:50.879Z,71.48
2022-08-17T20:07:22.320Z,72.12
2022-08-17T20:10:37.270Z,74.49
2022-08-17T20:13:09.891Z,74.63
2022-08-17T20:15:41.837Z,74.49
2022-08-17T20:18:24.157Z,74.54
2022-08-17T20:21:02.873Z,73.81
2022-08-17T20:23:38.969Z,73.89
2022-08-17T20:26:38.317Z,73.63
2022-08-17T20:29:37.776Z,73.05
2022-08-17T20:32:18.881Z,72.78
2022-08-17T20:34:47.788Z,72.29
2022-08-17T20:37:15.204Z,71.92
2022-08-17T20:40:04.420Z,72.04
2022-08-17T20:42:33.865Z,72.02
2022-08-17T20:45:26.119Z,72.35
2022-08-17T20:48:30.491Z,71.76
2022-08-17T20:50:56.980Z,71.62
2022-08-17T20:53:54.762Z,72.08
2022-08-17T20:56:43.555Z,72.08
2022-08-17T20:59:25.882Z,72.34
2022-08-17T21:02:18.814Z,72.59
2022-08-17T21:04:56.305Z,73.08
2022-08-17T21:07:23.535Z,73.62
2022-08-17T21:09:51.474Z,73.80
2022-08-17T21:12:50.223Z,74.05
2022-08-17T21:15:39.424Z,73.70
2022-08-17T21:18:12.977Z,73.70
2022-08-17T21:20:49.007Z,73.98
2022-08-17T21:23:37.477Z,74.17
2022-08-17T21:26:30.605Z,74.81
2022-08-17T21:29:29.814Z,74.25
2022-08-17T21:32:01.792Z,74.42
2022-08-17T21:34:38.085Z,73.84
2022-08-17T21:37:20.496Z,73.82
2022-08-17T21:39:54.754Z,73.68
2022-08-17T21:42:31.659Z,73.32
2022-08-17T21:45:29.643Z,74.03
2022-08-17T21:48:21.338Z,73.99
2022-08-17T21:51:12.062Z,74.37
2022-08-17T21:53:42.231Z,74.50
2022-08-17T21:56:11.939Z,74.67
2022-08-17T21:58:48.314Z,74.66
2022-08-17T22:01:27.261Z,74.67
2022-08-17T22:04:25.403Z,74.94
2022-08-17T22:06:57.441Z,74.86
2022-08-17T22:09:32.458Z,75.29
2022-08-17T22:12:11.148Z,75.60
2022-08-17T22:14:53.190Z,74.79
2022-08-17T22:17:34.343Z,74.56
2022-08-17T22:20:10.451Z,74.24
2022-08-17T22:23:19.335Z,74.28
2022-08-17T22:26:02.599Z,74.25
2022-08-17T22:28:49.883Z,74.00
2022-08-17T22:31:26.834Z,73.44
2022-08-17T22:34:00.135Z,73.26
2022-08-17T22:36:45.939Z,73.13
2022-08-17T22:39:13.381Z,73.80
2022-08-17T22:41:57.160Z,73.97
2022-08-17T22:44:34.015Z,73.72
2022-08-17T22:47:11.455Z,74.07
2022-08-17T22:49:57.820Z,73.87
2022-08-17T22:53:00.357Z,73.86
2022-08-17T22:55:49.750Z,73.24
2022-08-17T22:58:38.625Z,73.81
2022-08-17T23:01:35.544Z,73.81
2022-08-17T23:04:06.353Z,73.82
2022-08-17T23:06:35.174Z,73.13
2022-08-17T23:09:05.811Z,73.15
2022-08-17T23:11:50.071Z,72.52
2022-08-17T23:14:20.176Z,72.78
2022-08-17T23:16:50.145Z,73.29
2022-08-17T23:19:20.477Z,73.48
2022-08-17T23:21:49.168Z,73.81
2022-08-17T23:24:29.184Z,73.87
2022-08-17T23:26:58.137Z,73.38
2022-08-17T23:29:29.197Z,73.48
2022-08-17T23:31:59.781Z,74.00
2022-08-17T23:34:28.395Z,74.41
2022-08-17T23:36:55.887Z,74.24
2022-08-17T23:39:24.688Z,73.95
2022-08-17T23:41:57.960Z,73.46
2022-08-17T23:44:26.108Z,75.07
2022-08-17T23:46:54.486Z,74.48
2022-08-17T23:49:21.770Z,75.31
2022-08-17T23:51:49.228Z,74.74
2022-08-17T23:54:21.691Z,75.27
2022-08-17T23:56:49.090Z,74.79
2022-08-17T23:59:19.855Z,74.58
